Time;durP1;ratioP1;P1;durP2;ratioP2;P2;SDS_P1;SDS_P2;PMS_P1;PMS_P2;Temp;Humidity;BMP_temperature;BMP_pressure;BME280_temperature;BME280_humidity;BME280_pressure;Samples;Min_cycle;Max_cycle;Signal;HPM_P1;HPM_P2
2023/10/31 00:00:39;;;;;;;12.20;5.50;;;;;;;13.90;62.90;98501.33;104825;1271;61058;-26
2023/10/31 00:10:47;;;;;;;14.00;5.50;;;;;;;13.87;63.13;98485.23;102536;1291;600186;-26
2023/10/31 00:13:14;;;;;;;14.50;5.60;;;;;;;13.88;62.87;98488.40;104757;1276;61210;-26
2023/10/31 00:15:42;;;;;;;11.80;5.10;;;;;;;13.88;62.95;98484.73;104724;1271;61209;-26
2023/10/31 00:25:49;;;;;;;13.80;5.10;;;;;;;13.83;63.04;98480.66;102674;1290;600050;-26
2023/10/31 00:28:17;;;;;;;13.90;5.80;;;;;;;13.73;63.00;98480.63;104955;1269;61110;-26
2023/10/31 00:30:44;;;;;;;13.10;6.00;;;;;;;13.69;63.08;98478.34;104938;1264;61527;-26
2023/10/31 00:33:12;;;;;;;13.30;5.30;;;;;;;13.61;63.30;98480.52;104938;1270;70957;-26
2023/10/31 00:35:40;;;;;;;15.10;6.10;;;;;;;13.55;63.58;98474.73;104894;1265;74246;-26
2023/10/31 00:38:07;;;;;;;11.50;5.00;;;;;;;13.44;63.85;98474.53;104811;1266;72604;-27
2023/10/31 00:48:23;;;;;;;9.90;5.40;;;;;;;13.19;64.60;98470.60;102667;1295;600170;-26
2023/10/31 00:50:51;;;;;;;11.40;4.80;;;;;;;13.07;64.83;98467.80;104900;1270;61174;-26
2023/10/31 00:53:18;;;;;;;11.80;5.30;;;;;;;12.99;65.24;98460.77;104814;1272;61157;-26
2023/10/31 00:55:46;;;;;;;15.00;5.30;;;;;;;12.93;65.12;98459.98;104864;1270;72215;-26
2023/10/31 00:58:13;;;;;;;13.90;5.90;;;;;;;12.86;65.38;98461.21;104804;1267;74235;-26
2023/10/31 01:08:20;;;;;;;15.40;6.00;;;;;;;12.63;65.94;98438.84;102736;1294;600960;-26
2023/10/31 01:10:48;;;;;;;14.60;6.30;;;;;;;12.55;65.96;98439.52;104912;1269;62745;-26
2023/10/31 01:20:55;;;;;;;10.80;5.50;;;;;;;12.32;66.95;98428.38;102657;1293;600393;-26
2023/10/31 01:23:23;;;;;;;16.40;6.00;;;;;;;12.26;66.76;98429.64;105030;1265;61115;-26
2023/10/31 01:25:52;;;;;;;19.20;5.90;;;;;;;12.22;66.48;98427.78;104865;1267;61132;-26
2023/10/31 01:28:19;;;;;;;11.90;5.50;;;;;;;12.14;66.93;98425.95;105044;1267;71004;-26
2023/10/31 01:30:47;;;;;;;15.20;5.60;;;;;;;12.08;67.11;98431.97;104810;1267;74288;-26
2023/10/31 01:33:15;;;;;;;8.40;4.10;;;;;;;12.07;67.08;98431.57;104977;1267;71676;-26
2023/10/31 01:35:43;;;;;;;10.40;4.30;;;;;;;12.60;67.06;98434.46;102641;1263;3360806;-26
2023/10/31 01:38:11;;;;;;;12.10;5.20;;;;;;;13.17;64.57;98435.49;104994;1264;61167;-26
2023/10/31 01:40:39;;;;;;;9.70;5.10;;;;;;;13.29;63.74;98431.09;105168;1265;72207;-26
2023/10/31 01:43:06;;;;;;;13.30;5.50;;;;;;;13.19;63.63;98435.10;105012;1263;73013;-26
2023/10/31 01:45:34;;;;;;;10.70;5.20;;;;;;;13.02;63.58;98433.63;105098;1264;72630;-26
2023/10/31 01:48:02;;;;;;;13.70;5.80;;;;;;;12.82;64.33;98433.21;105023;1263;61192;-27
2023/10/31 01:58:09;;;;;;;14.50;5.90;;;;;;;12.17;66.15;98417.82;102753;1290;600164;-26
2023/10/31 02:00:39;;;;;;;13.00;5.40;;;;;;;11.98;66.82;98414.11;105118;1269;61126;-26
2023/10/31 02:03:07;;;;;;;13.00;4.80;;;;;;;11.80;67.55;98411.14;105051;1260;61100;-26
2023/10/31 02:05:35;;;;;;;9.70;4.70;;;;;;;11.62;68.07;98410.76;105214;1268;70011;-26
2023/10/31 02:08:03;;;;;;;12.20;5.20;;;;;;;11.47;68.94;98403.86;105241;1266;73122;-26
2023/10/31 02:10:30;;;;;;;10.40;4.00;;;;;;;11.34;70.27;98399.48;104983;1264;72066;-26
2023/10/31 02:12:58;;;;;;;8.30;4.20;;;;;;;11.74;69.83;98398.08;102607;1266;3377713;-28
2023/10/31 02:15:26;;;;;;;14.40;4.50;;;;;;;12.25;68.21;98404.04;105111;1266;61180;-26
2023/10/31 02:17:53;;;;;;;10.70;4.20;;;;;;;12.32;67.25;98414.77;105215;1261;72220;-26
2023/10/31 02:20:21;;;;;;;14.10;5.20;;;;;;;12.22;67.23;98416.16;105161;1266;74269;-26
2023/10/31 02:22:49;;;;;;;10.80;4.60;;;;;;;12.11;67.16;98413.36;105204;1261;72661;-26
2023/10/31 02:25:17;;;;;;;11.40;4.30;;;;;;;11.99;67.54;98413.30;105189;1263;61164;-26
2023/10/31 02:27:46;;;;;;;11.70;5.20;;;;;;;11.86;67.68;98416.31;105244;1261;61057;-28
2023/10/31 02:30:14;;;;;;;12.40;4.60;;;;;;;11.74;67.98;98417.78;105225;1260;72070;-28
2023/10/31 02:32:42;;;;;;;12.00;5.90;;;;;;;11.63;68.45;98420.03;105121;1266;72834;-28
2023/10/31 02:35:10;;;;;;;12.60;4.90;;;;;;;11.56;68.62;98420.55;105132;1260;71453;-27
2023/10/31 02:37:38;;;;;;;11.50;5.00;;;;;;;11.51;68.31;98418.39;105165;1266;61208;-27
2023/10/31 02:47:48;;;;;;;9.70;3.60;;;;;;;12.19;67.52;98411.39;102664;1289;600032;-26
2023/10/31 02:50:16;;;;;;;10.60;5.30;;;;;;;12.60;65.57;98404.71;104861;1266;61139;-26
2023/10/31 02:52:44;;;;;;;8.50;4.00;;;;;;;12.63;65.37;98407.04;104788;1267;61183;-26
2023/10/31 02:55:12;;;;;;;11.30;4.40;;;;;;;12.48;65.41;98403.48;104889;1270;72212;-26
2023/10/31 02:57:39;;;;;;;13.30;5.10;;;;;;;12.27;65.97;98398.96;104810;1272;74326;-26
2023/10/31 03:00:07;;;;;;;10.90;4.30;;;;;;;12.10;66.46;98397.85;104802;1272;72645;-26
2023/10/31 03:02:35;;;;;;;8.80;4.30;;;;;;;11.94;66.81;98394.96;102739;1267;3270475;-26
2023/10/31 03:11:43;;;;;;;9.20;4.00;;;;;;;11.39;69.37;98383.52;102622;1293;600187;-26
2023/10/31 03:14:10;;;;;;;9.80;4.70;;;;;;;11.24;69.87;98381.70;104802;1267;61302;-26
2023/10/31 03:16:39;;;;;;;15.30;4.90;;;;;;;11.12;70.16;98381.86;104804;1267;61132;-26
2023/10/31 03:19:07;;;;;;;16.90;4.90;;;;;;;11.06;70.27;98383.34;104878;1267;72226;-27
2023/10/31 03:21:34;;;;;;;11.30;4.40;;;;;;;11.57;70.04;98389.23;104854;1267;74213;-27
2023/10/31 03:24:02;;;;;;;12.50;4.80;;;;;;;12.21;68.03;98390.12;104806;1267;71433;-27
2023/10/31 03:26:30;;;;;;;10.60;4.80;;;;;;;12.38;66.68;98388.78;102719;1265;3221012;-27
2023/10/31 03:28:57;;;;;;;14.20;4.40;;;;;;;12.30;66.29;98386.46;105058;1264;61075;-27
2023/10/31 03:31:25;;;;;;;14.60;4.50;;;;;;;12.17;66.39;98387.73;105032;1269;71063;-27
2023/10/31 03:33:53;;;;;;;11.20;5.00;;;;;;;11.99;66.65;98388.20;105160;1269;73133;-27
2023/10/31 03:36:21;;;;;;;14.00;5.50;;;;;;;11.82;67.20;98385.36;104838;1270;72593;-28
2023/10/31 03:46:28;;;;;;;14.80;4.90;;;;;;;11.30;68.51;98385.92;102713;1294;600603;-26
2023/10/31 03:48:56;;;;;;;12.70;5.40;;;;;;;11.18;68.86;98382.59;105092;1269;61286;-26
2023/10/31 03:51:23;;;;;;;21.10;6.40;;;;;;;11.08;69.13;98383.00;104826;1271;61200;-26
2023/10/31 03:53:51;;;;;;;15.70;5.60;;;;;;;10.97;69.49;98377.61;104832;1269;72278;-26
2023/10/31 03:56:18;;;;;;;11.60;4.10;;;;;;;10.88;69.80;98372.31;105074;1269;74299;-26
2023/10/31 03:58:46;;;;;;;18.80;5.20;;;;;;;11.38;70.21;98368.37;105053;1267;72745;-26
2023/10/31 04:01:13;;;;;;;15.40;5.40;;;;;;;12.00;68.67;98364.36;102794;1264;3178084;-26
2023/10/31 04:03:42;;;;;;;11.10;4.90;;;;;;;12.14;67.65;98359.69;105201;1268;61109;-26
2023/10/31 04:06:09;;;;;;;23.00;6.60;;;;;;;12.04;67.55;98355.36;105014;1269;71405;-26
2023/10/31 04:08:37;;;;;;;19.00;6.40;;;;;;;11.84;67.30;98352.98;105013;1264;74323;-26
2023/10/31 04:11:05;;;;;;;16.90;6.20;;;;;;;11.61;67.95;98351.73;105162;1269;72439;-26
2023/10/31 04:21:14;;;;;;;16.30;5.90;;;;;;;10.91;70.26;98357.10;102595;1293;600711;-26
2023/10/31 04:23:42;;;;;;;13.60;5.40;;;;;;;10.75;70.36;98351.68;104804;1266;61171;-26
2023/10/31 04:26:10;;;;;;;14.00;5.60;;;;;;;10.63;70.55;98353.14;104781;1267;61233;-27
2023/10/31 04:28:37;;;;;;;12.40;3.80;;;;;;;10.54;71.15;98348.52;104789;1266;72191;-28
2023/10/31 04:31:05;;;;;;;16.30;4.90;;;;;;;11.01;71.66;98344.84;104807;1271;73426;-26
2023/10/31 04:33:32;;;;;;;19.10;5.40;;;;;;;11.60;69.80;98337.09;104794;1267;71740;-27
2023/10/31 04:36:02;;;;;;;15.70;5.20;;;;;;;11.70;69.17;98335.95;102749;1263;3209543;-27
2023/10/31 04:38:29;;;;;;;17.20;5.60;;;;;;;11.54;69.37;98332.95;105120;1269;61215;-27
2023/10/31 04:40:57;;;;;;;14.50;6.50;;;;;;;11.28;69.96;98332.84;105079;1264;72317;-27
2023/10/31 04:43:24;;;;;;;15.20;6.30;;;;;;;10.98;70.51;98331.63;105050;1266;74385;-27
2023/10/31 04:45:52;;;;;;;13.50;6.00;;;;;;;10.72;71.56;98332.49;105078;1263;71117;-27
2023/10/31 04:48:20;;;;;;;18.10;6.00;;;;;;;10.46;72.79;98334.31;105103;1261;61265;-27
2023/10/31 04:50:47;;;;;;;16.50;6.50;;;;;;;10.25;73.85;98336.06;105110;1260;61130;-27
2023/10/31 04:59:39;;;;;;;12.10;4.90;;;;;;;11.22;71.46;98356.67;102591;1293;600146;-27
2023/10/31 05:02:06;;;;;;;13.80;5.40;;;;;;;11.14;71.19;98351.52;105083;1267;61173;-26
2023/10/31 05:04:39;;;;;;;13.30;5.50;;;;;;;10.97;71.35;98351.16;104777;1267;61072;-28
2023/10/31 05:07:06;;;;;;;10.70;6.00;;;;;;;10.79;71.45;98354.56;104745;1265;71033;-26
2023/10/31 05:09:35;;;;;;;11.70;6.00;;;;;;;10.62;72.06;98355.11;104818;1269;74315;-26
2023/10/31 05:12:03;;;;;;;13.10;5.60;;;;;;;10.46;72.69;98355.52;104819;1267;72687;-26
2023/10/31 05:14:31;;;;;;;11.20;5.40;;;;;;;10.31;73.63;98353.25;102410;1267;61196;-26
2023/10/31 05:16:59;;;;;;;14.90;5.00;;;;;;;10.22;74.20;98353.82;104848;1264;61073;-26
2023/10/31 05:19:26;;;;;;;10.20;4.60;;;;;;;10.65;73.17;98352.91;104844;1269;61071;-26
2023/10/31 05:29:32;;;;;;;12.90;5.50;;;;;;;10.98;71.28;98351.41;102588;1292;600201;-26
2023/10/31 05:39:42;;;;;;;12.30;5.60;;;;;;;10.53;73.25;98347.04;102664;1293;599980;-26
2023/10/31 05:42:10;;;;;;;7.30;4.00;;;;;;;10.49;74.13;98354.39;104908;1270;61173;-26
2023/10/31 05:44:39;;;;;;;10.70;4.90;;;;;;;11.05;73.19;98358.76;104879;1270;61254;-27
2023/10/31 05:47:07;;;;;;;9.20;4.50;;;;;;;11.66;70.76;98354.56;104998;1264;71445;-27
2023/10/31 05:49:34;;;;;;;12.70;4.90;;;;;;;11.79;69.65;98353.48;104935;1269;73052;-27
2023/10/31 05:52:02;;;;;;;13.30;5.20;;;;;;;11.72;69.45;98351.04;104863;1267;72698;-27
2023/10/31 05:54:30;;;;;;;11.90;5.20;;;;;;;11.58;69.69;98353.23;102762;1263;3283033;-27
2023/10/31 05:56:57;;;;;;;14.60;5.90;;;;;;;11.47;70.23;98354.79;105291;1261;61186;-27
2023/10/31 05:59:25;;;;;;;13.20;5.80;;;;;;;11.37;70.86;98354.02;105165;1261;72222;-27
2023/10/31 06:01:53;;;;;;;12.00;5.30;;;;;;;11.26;71.71;98357.66;105207;1260;74287;-27
2023/10/31 06:04:20;;;;;;;12.90;6.20;;;;;;;11.12;72.48;98355.44;105132;1264;72764;-27
2023/10/31 06:14:15;;;;;;;9.70;4.40;;;;;;;11.91;69.85;98349.33;102637;1293;600133;-26
2023/10/31 06:24:25;;;;;;;13.20;5.40;;;;;;;11.66;69.88;98343.43;102668;1293;600150;-26
2023/10/31 06:26:52;;;;;;;9.40;4.60;;;;;;;11.58;70.00;98341.61;105058;1267;61197;-26
2023/10/31 06:29:20;;;;;;;8.80;4.20;;;;;;;11.54;69.76;98335.55;105063;1266;61172;-27
2023/10/31 06:32:07;;;;;;;10.80;4.90;;;;;;;11.49;69.94;98332.03;104779;1267;72315;-26
2023/10/31 06:34:35;;;;;;;7.20;3.80;;;;;;;11.47;70.24;98327.18;105008;1267;74271;-26
2023/10/31 06:37:03;;;;;;;9.30;4.20;;;;;;;11.90;69.01;98323.20;102607;1269;3344800;-26
2023/10/31 06:39:32;;;;;;;11.20;5.00;;;;;;;12.28;67.61;98320.86;104796;1272;61189;-26
2023/10/31 06:42:00;;;;;;;9.60;5.00;;;;;;;12.34;67.16;98314.02;105226;1262;61176;-27
2023/10/31 06:44:27;;;;;;;11.50;5.60;;;;;;;12.28;67.20;98315.35;105183;1266;72182;-26
2023/10/31 06:46:55;;;;;;;8.80;4.20;;;;;;;12.16;67.21;98312.52;105112;1264;73026;-26
2023/10/31 06:49:23;;;;;;;11.90;5.20;;;;;;;12.08;67.50;98305.30;105037;1264;72651;-26
2023/10/31 06:51:51;;;;;;;13.60;6.30;;;;;;;12.00;67.99;98306.88;105170;1264;61109;-26
2023/10/31 06:54:19;;;;;;;12.00;5.10;;;;;;;11.99;68.08;98306.98;105078;1264;61068;-27
2023/10/31 06:56:47;;;;;;;9.50;4.90;;;;;;;11.98;67.72;98306.58;105075;1266;71862;-26
2023/10/31 07:06:00;;;;;;;11.90;5.30;;;;;;;12.07;67.60;98300.17;102597;1292;600130;-26
2023/10/31 07:08:29;;;;;;;7.80;4.60;;;;;;;12.11;67.39;98300.31;105225;1262;61183;-27
2023/10/31 07:10:57;;;;;;;15.60;5.40;;;;;;;12.18;67.29;98298.52;105281;1260;61043;-27
2023/10/31 07:13:28;;;;;;;9.40;5.30;;;;;;;12.25;67.03;98297.13;105245;1266;70954;-26
2023/10/31 07:15:55;;;;;;;10.80;5.40;;;;;;;12.32;66.18;98301.18;105189;1260;74212;-26
2023/10/31 07:18:23;;;;;;;11.70;5.70;;;;;;;12.39;66.45;98295.77;105202;1260;72686;-27
2023/10/31 07:20:51;;;;;;;12.00;5.80;;;;;;;12.45;66.59;98292.42;103080;1262;61199;-25
2023/10/31 07:23:19;;;;;;;9.50;5.20;;;;;;;12.50;65.94;98283.87;105340;1258;61067;-26
2023/10/31 07:25:46;;;;;;;9.60;5.10;;;;;;;12.55;65.96;98278.70;105508;1262;61198;-26
2023/10/31 07:28:14;;;;;;;11.60;5.90;;;;;;;12.59;65.72;98272.29;105513;1258;73316;-25
2023/10/31 07:30:42;;;;;;;14.10;6.00;;;;;;;12.62;66.14;98267.30;105347;1261;72287;-25
2023/10/31 07:33:09;;;;;;;11.10;4.70;;;;;;;12.69;66.01;98265.60;105487;1259;61643;-25
2023/10/31 07:35:37;;;;;;;14.70;5.30;;;;;;;12.75;65.77;98265.85;105591;1260;61166;-25
2023/10/31 07:38:05;;;;;;;10.70;5.80;;;;;;;12.80;65.16;98267.39;105308;1259;72055;-28
2023/10/31 07:40:33;;;;;;;13.60;5.20;;;;;;;12.85;64.89;98261.85;105337;1264;74374;-26
2023/10/31 07:43:00;;;;;;;12.60;5.50;;;;;;;12.89;64.79;98257.73;105356;1260;71402;-26
2023/10/31 07:45:28;;;;;;;8.20;4.40;;;;;;;12.96;64.05;98252.05;105182;1260;61177;-27
2023/10/31 07:47:55;;;;;;;10.00;4.90;;;;;;;13.01;63.86;98244.38;105428;1258;61576;-28
2023/10/31 07:58:02;;;;;;;11.20;7.20;;;;;;;13.30;63.23;98225.30;102663;1290;600196;-26
2023/10/31 08:00:30;;;;;;;14.90;6.80;;;;;;;13.34;63.04;98229.65;104862;1264;61110;-27
2023/10/31 08:02:58;;;;;;;11.00;7.40;;;;;;;13.41;62.95;98231.80;104916;1270;62126;-26
2023/10/31 08:05:26;;;;;;;12.40;6.40;;;;;;;13.48;62.26;98230.61;104842;1270;72238;-27
2023/10/31 08:07:54;;;;;;;17.50;7.50;;;;;;;13.51;61.81;98229.20;104885;1270;73210;-27
2023/10/31 08:10:22;;;;;;;13.60;8.00;;;;;;;13.58;61.81;98226.98;104816;1267;73104;-27
2023/10/31 08:12:49;;;;;;;12.00;6.60;;;;;;;13.62;61.29;98223.73;102554;1266;3426868;-27
2023/10/31 08:15:17;;;;;;;15.10;6.80;;;;;;;13.65;61.29;98225.31;105077;1263;61179;-27
2023/10/31 08:17:44;;;;;;;13.70;7.90;;;;;;;13.68;60.94;98224.11;105096;1268;72247;-27
2023/10/31 08:20:13;;;;;;;13.50;6.80;;;;;;;13.75;60.98;98221.48;105116;1268;75491;-27
2023/10/31 08:22:44;;;;;;;15.00;6.10;;;;;;;13.81;60.59;98218.90;105047;1268;71797;-27
2023/10/31 08:25:12;;;;;;;15.10;6.30;;;;;;;13.86;60.43;98217.16;105060;1263;61044;-26
2023/10/31 08:27:40;;;;;;;13.50;7.10;;;;;;;13.90;60.63;98211.63;104903;1270;61198;-26
2023/10/31 08:30:08;;;;;;;9.70;5.20;;;;;;;13.95;59.88;98213.25;105076;1264;71698;-26
2023/10/31 08:40:19;;;;;;;14.00;6.40;;;;;;;14.28;59.71;98198.61;102752;1293;599498;-26
2023/10/31 08:42:47;;;;;;;15.30;7.80;;;;;;;14.39;59.25;98195.13;105113;1270;61083;-26
2023/10/31 08:45:15;;;;;;;12.20;8.20;;;;;;;14.53;59.19;98194.03;105044;1270;61288;-26
2023/10/31 08:47:42;;;;;;;15.30;8.00;;;;;;;14.64;58.49;98187.63;105125;1264;70968;-26
2023/10/31 08:50:11;;;;;;;10.30;6.10;;;;;;;14.76;58.39;98179.94;104911;1264;76353;-26
2023/10/31 08:52:38;;;;;;;12.40;7.10;;;;;;;14.83;57.89;98174.78;105063;1263;71354;-26
2023/10/31 08:55:07;;;;;;;12.10;7.00;;;;;;;14.96;57.23;98174.17;102798;1267;3257127;-27
2023/10/31 08:57:34;;;;;;;11.50;6.00;;;;;;;15.17;56.88;98176.50;105266;1260;61065;-27
2023/10/31 09:00:04;;;;;;;11.90;6.50;;;;;;;15.38;56.07;98171.32;105199;1268;71907;-27
2023/10/31 09:02:33;;;;;;;15.70;6.90;;;;;;;15.55;55.68;98169.39;105245;1269;76420;-27
2023/10/31 09:05:01;;;;;;;14.60;7.50;;;;;;;15.69;54.95;98169.73;105233;1264;74990;-27
2023/10/31 09:07:29;;;;;;;12.20;6.00;;;;;;;15.92;54.48;98167.85;105191;1264;62160;-27
2023/10/31 09:09:56;;;;;;;12.00;6.40;;;;;;;16.30;53.81;98165.25;105171;1264;61220;-26
2023/10/31 09:12:24;;;;;;;13.40;6.60;;;;;;;16.74;53.71;98160.32;105123;1264;73399;-27
2023/10/31 09:14:52;;;;;;;11.90;7.00;;;;;;;17.12;51.81;98159.58;105009;1269;76712;-27
2023/10/31 09:17:19;;;;;;;14.50;7.40;;;;;;;17.35;50.60;98155.31;104814;1267;72517;-26
2023/10/31 09:19:47;;;;;;;11.20;7.00;;;;;;;17.53;50.71;98155.63;105110;1263;61253;-27
2023/10/31 09:22:16;;;;;;;13.20;7.40;;;;;;;17.73;50.02;98150.65;105136;1269;61181;-27
2023/10/31 09:24:44;;;;;;;12.40;6.80;;;;;;;17.78;49.03;98150.89;104857;1272;73020;-27
2023/10/31 09:27:13;;;;;;;11.60;7.00;;;;;;;17.88;49.00;98138.06;104914;1270;76656;-27
2023/10/31 09:29:41;;;;;;;11.80;5.70;;;;;;;17.88;48.90;98134.05;105030;1270;72947;-27
2023/10/31 09:32:11;;;;;;;11.60;6.10;;;;;;;17.84;48.76;98127.58;104881;1272;61291;-26
2023/10/31 09:34:39;;;;;;;9.00;5.70;;;;;;;17.81;48.85;98117.05;105137;1268;61155;-28
2023/10/31 09:37:06;;;;;;;7.90;4.70;;;;;;;17.85;48.58;98113.05;105108;1267;74828;-27
2023/10/31 09:39:34;;;;;;;11.50;6.20;;;;;;;17.86;48.64;98110.50;105140;1269;74763;-27
2023/10/31 09:42:02;;;;;;;9.00;5.70;;;;;;;17.97;48.58;98104.32;105136;1264;75037;-27
2023/10/31 09:44:30;;;;;;;11.70;6.40;;;;;;;18.12;47.78;98100.27;105146;1269;61247;-27
2023/10/31 09:46:58;;;;;;;11.00;7.10;;;;;;;18.26;47.64;98093.23;104794;1263;61076;-27
2023/10/31 09:49:26;;;;;;;8.90;6.10;;;;;;;18.33;47.21;98094.38;104875;1264;72827;-27
2023/10/31 09:59:36;;;;;;;10.80;5.40;;;;;;;18.42;46.66;98078.54;102641;1293;600079;-26
2023/10/31 10:02:04;;;;;;;10.70;5.60;;;;;;;18.43;46.63;98078.84;104865;1267;62317;-27
2023/10/31 10:04:32;;;;;;;9.80;5.70;;;;;;;18.48;46.67;98073.70;104888;1269;61202;-26
2023/10/31 10:07:01;;;;;;;9.10;5.20;;;;;;;18.57;47.04;98072.97;104857;1266;74480;-27
2023/10/31 10:09:29;;;;;;;9.50;5.40;;;;;;;18.67;47.18;98069.61;104733;1273;75442;-27
2023/10/31 10:11:57;;;;;;;12.60;5.60;;;;;;;18.74;46.82;98070.77;105178;1268;73889;-27
2023/10/31 10:14:28;;;;;;;12.30;5.40;;;;;;;18.70;46.59;98064.88;102678;1261;3370112;-27
2023/10/31 10:16:57;;;;;;;8.70;5.80;;;;;;;18.70;47.29;98067.07;105169;1261;61199;-27
2023/10/31 10:19:25;;;;;;;8.50;4.90;;;;;;;18.84;47.23;98067.12;105221;1260;73498;-27
2023/10/31 10:21:55;;;;;;;9.50;5.10;;;;;;;18.93;46.91;98060.23;105216;1266;73868;-27
2023/10/31 10:24:24;;;;;;;11.30;6.00;;;;;;;19.12;46.62;98061.84;105078;1261;72548;-27
2023/10/31 10:26:52;;;;;;;10.20;5.20;;;;;;;19.31;46.52;98062.64;104899;1261;61156;-27
2023/10/31 10:29:20;;;;;;;8.90;5.50;;;;;;;19.38;46.21;98058.16;104796;1267;61971;-27
2023/10/31 10:31:48;;;;;;;7.70;4.80;;;;;;;19.66;46.54;98057.95;105073;1263;75375;-26
2023/10/31 10:34:16;;;;;;;10.60;5.10;;;;;;;19.97;45.00;98050.22;105191;1260;73534;-27
2023/10/31 10:44:32;;;;;;;13.30;4.20;;;;;;;20.55;44.13;98030.86;102661;1293;600238;-26
2023/10/31 10:47:05;;;;;;;8.10;4.10;;;;;;;20.59;43.62;98030.04;104774;1267;62388;-26
2023/10/31 10:49:35;;;;;;;7.40;3.90;;;;;;;20.64;43.58;98032.41;104658;1274;61265;-26
2023/10/31 10:52:10;;;;;;;9.00;3.70;;;;;;;20.70;43.37;98033.67;104853;1269;71353;-26
2023/10/31 10:54:44;;;;;;;7.40;3.00;;;;;;;20.85;43.12;98030.07;105236;1268;73265;-26
2023/10/31 10:57:20;;;;;;;8.00;3.50;;;;;;;21.01;41.79;98027.85;102898;1268;3320510;-26
2023/10/31 10:59:52;;;;;;;10.20;3.40;;;;;;;21.10;41.19;98026.40;105336;1263;61056;-26
2023/10/31 11:02:20;;;;;;;10.50;3.60;;;;;;;21.32;41.03;98029.19;105474;1262;61258;-26
2023/10/31 11:04:47;;;;;;;7.70;3.10;;;;;;;21.54;39.97;98025.60;105343;1256;71182;-26
2023/10/31 11:07:16;;;;;;;9.60;3.70;;;;;;;21.56;39.32;98017.03;105587;1257;76400;-26
2023/10/31 11:09:46;;;;;;;7.10;3.00;;;;;;;21.77;38.61;98014.88;105395;1262;74975;-26
2023/10/31 11:12:14;;;;;;;13.50;3.00;;;;;;;21.87;38.06;98016.79;105441;1259;61148;-26
2023/10/31 11:14:42;;;;;;;6.40;2.70;;;;;;;21.98;37.01;98015.17;105366;1257;61142;-26
2023/10/31 11:17:14;;;;;;;6.20;2.00;;;;;;;21.96;37.90;98017.98;105521;1262;74370;-26
2023/10/31 11:19:42;;;;;;;7.30;2.40;;;;;;;22.17;37.17;98010.56;105165;1257;72923;-26
2023/10/31 11:22:10;;;;;;;6.30;2.50;;;;;;;22.29;36.23;98000.88;105234;1256;72121;-26
2023/10/31 11:24:38;;;;;;;6.60;2.30;;;;;;;22.18;35.85;98004.80;105486;1259;61298;-26
2023/10/31 11:27:06;;;;;;;6.30;2.50;;;;;;;22.19;36.66;98001.85;105453;1262;61172;-26
2023/10/31 11:29:34;;;;;;;4.90;2.80;;;;;;;22.15;35.80;97991.79;105198;1257;74318;-26
2023/10/31 11:32:03;;;;;;;4.70;1.80;;;;;;;22.03;35.81;98012.11;105011;1268;74293;-26
2023/10/31 11:34:30;;;;;;;4.50;2.20;;;;;;;21.89;35.76;98009.16;105486;1260;73000;-25
2023/10/31 11:37:22;;;;;;;5.80;2.20;;;;;;;21.78;36.18;98007.85;105333;1262;62453;-26
2023/10/31 11:40:21;;;;;;;6.40;2.10;;;;;;;21.73;35.89;98002.34;105075;1256;61114;-25
2023/10/31 11:42:56;;;;;;;4.90;2.30;;;;;;;21.69;36.32;98004.53;105242;1262;72999;-25
2023/10/31 11:45:44;;;;;;;6.60;2.50;;;;;;;21.60;36.15;97997.92;105235;1263;76106;-25
2023/10/31 11:48:12;;;;;;;6.20;2.50;;;;;;;21.42;36.79;97993.96;105279;1263;72660;-26
2023/10/31 11:50:40;;;;;;;3.50;2.20;;;;;;;21.45;37.77;97989.52;105237;1257;62072;-25
2023/10/31 11:53:12;;;;;;;5.40;2.50;;;;;;;21.46;37.23;97990.62;105362;1262;61254;-26
2023/10/31 11:55:41;;;;;;;9.00;3.10;;;;;;;21.60;37.56;97989.44;105166;1266;73463;-26
2023/10/31 11:58:23;;;;;;;4.90;2.40;;;;;;;21.68;36.53;97984.55;105114;1257;74531;-25
2023/10/31 12:08:35;;;;;;;5.80;2.20;;;;;;;22.24;36.39;97966.24;103594;1284;600793;-27
2023/10/31 12:11:20;;;;;;;11.00;3.00;;;;;;;22.37;35.92;97964.45;104807;1267;62087;-27
2023/10/31 12:13:57;;;;;;;5.30;2.30;;;;;;;22.41;35.59;97964.60;104835;1267;61247;-27
2023/10/31 12:16:32;;;;;;;5.80;2.20;;;;;;;22.40;35.27;97959.27;104840;1267;72106;-27
2023/10/31 12:19:01;;;;;;;4.70;2.50;;;;;;;22.45;35.91;97952.61;104785;1272;73958;-26
2023/10/31 12:29:18;;;;;;;4.80;2.40;;;;;;;22.45;34.93;97940.13;102706;1293;600133;-26
2023/10/31 12:31:52;;;;;;;6.30;2.40;;;;;;;22.45;35.29;97938.34;104737;1268;62250;-26
2023/10/31 12:34:21;;;;;;;2.80;2.10;;;;;;;22.43;35.34;97940.89;104877;1264;61235;-26
2023/10/31 12:36:51;;;;;;;6.50;2.60;;;;;;;22.32;34.90;97942.14;104838;1264;71142;-27
2023/10/31 12:39:21;;;;;;;5.00;2.10;;;;;;;22.29;35.59;97937.25;104810;1273;74221;-27
2023/10/31 12:41:49;;;;;;;7.20;2.70;;;;;;;22.25;35.33;97930.46;102308;1267;3435027;-27
2023/10/31 12:44:24;;;;;;;3.50;2.40;;;;;;;22.20;35.67;97922.55;104869;1269;61886;-27
2023/10/31 12:46:52;;;;;;;4.90;2.30;;;;;;;22.15;35.76;97921.80;104878;1264;61202;-27
2023/10/31 12:49:20;;;;;;;5.10;2.70;;;;;;;22.07;35.70;97918.60;105117;1269;75653;-27
2023/10/31 12:52:04;;;;;;;7.00;3.00;;;;;;;21.99;35.62;97916.30;105081;1269;76746;-27
2023/10/31 12:54:34;;;;;;;8.50;3.80;;;;;;;21.99;36.25;97913.41;104855;1264;74958;-27
2023/10/31 12:57:06;;;;;;;6.80;4.10;;;;;;;21.96;36.31;97904.81;104919;1263;61477;-27
2023/10/31 12:59:34;;;;;;;6.30;3.50;;;;;;;21.89;36.52;97903.89;104885;1261;61125;-26
2023/10/31 13:02:03;;;;;;;6.80;3.90;;;;;;;21.82;36.85;97900.45;105786;1251;74915;-26
2023/10/31 13:04:32;;;;;;;6.80;3.40;;;;;;;21.78;36.58;97895.36;106002;1251;76433;-26
2023/10/31 13:07:07;;;;;;;6.60;4.00;;;;;;;21.75;36.71;97891.30;105701;1251;71520;-26
2023/10/31 13:09:38;;;;;;;7.00;3.70;;;;;;;21.69;36.71;97886.16;105764;1257;61078;-27
2023/10/31 13:12:07;;;;;;;5.90;3.70;;;;;;;21.66;36.51;97892.52;105703;1251;61119;-27
2023/10/31 13:14:36;;;;;;;6.00;3.50;;;;;;;21.69;36.46;97899.58;105805;1251;73024;-27
2023/10/31 13:17:05;;;;;;;6.00;3.50;;;;;;;21.73;36.79;97892.90;105864;1256;76223;-26
2023/10/31 13:19:33;;;;;;;7.30;3.40;;;;;;;21.71;36.56;97884.91;105827;1254;74684;-26
2023/10/31 13:22:00;;;;;;;9.00;4.10;;;;;;;21.64;36.56;97881.00;105680;1259;61215;-27
2023/10/31 13:24:28;;;;;;;5.50;3.00;;;;;;;21.57;36.86;97883.94;105840;1251;61074;-27
2023/10/31 13:26:56;;;;;;;6.70;3.10;;;;;;;21.49;37.15;97872.35;105764;1251;75346;-27
2023/10/31 13:29:25;;;;;;;4.90;2.70;;;;;;;21.43;37.70;97875.05;105780;1256;74608;-27
2023/10/31 13:31:53;;;;;;;7.10;2.70;;;;;;;21.36;37.41;97869.31;105860;1254;75076;-26
2023/10/31 13:34:21;;;;;;;6.70;3.40;;;;;;;21.30;37.65;97867.34;105838;1254;61242;-27
2023/10/31 13:36:49;;;;;;;7.60;3.10;;;;;;;21.26;38.09;97874.52;105847;1257;61169;-26
2023/10/31 13:39:21;;;;;;;6.90;3.40;;;;;;;21.19;38.23;97870.66;105839;1251;75319;-26
2023/10/31 13:41:49;;;;;;;5.40;3.90;;;;;;;21.13;38.09;97864.40;105838;1251;75818;-26
2023/10/31 13:44:17;;;;;;;5.20;3.30;;;;;;;21.06;38.55;97861.88;105554;1254;74378;-26
2023/10/31 13:46:45;;;;;;;6.90;3.60;;;;;;;20.95;38.62;97857.72;105533;1257;61202;-27
2023/10/31 13:49:13;;;;;;;5.40;2.50;;;;;;;20.84;38.31;97855.80;105611;1251;61106;-27
2023/10/31 13:51:41;;;;;;;6.50;3.00;;;;;;;20.77;38.24;97858.48;105716;1251;72512;-27
2023/10/31 13:54:09;;;;;;;5.60;2.50;;;;;;;20.71;38.18;97853.58;105645;1256;74913;-27
2023/10/31 13:56:37;;;;;;;4.30;2.10;;;;;;;20.65;38.08;97855.59;105679;1254;72521;-26
2023/10/31 13:59:04;;;;;;;4.50;2.20;;;;;;;20.63;37.70;97858.85;105695;1251;61106;-27
2023/10/31 14:01:32;;;;;;;6.90;2.70;;;;;;;20.53;37.85;97851.67;105791;1251;61039;-27
2023/10/31 14:04:00;;;;;;;10.10;2.90;;;;;;;20.42;38.09;97847.95;105773;1251;74654;-27
2023/10/31 14:06:32;;;;;;;4.70;2.80;;;;;;;20.33;38.34;97852.39;105766;1257;74245;-27
2023/10/31 14:09:01;;;;;;;5.40;3.20;;;;;;;20.17;38.70;97854.61;105622;1254;73083;-27
2023/10/31 14:11:29;;;;;;;9.20;3.70;;;;;;;20.01;38.96;97862.63;105608;1254;61571;-26